Time;durP1;ratioP1;P1;durP2;ratioP2;P2;SDS_P1;SDS_P2;PMS_P1;PMS_P2;Temp;Humidity;BMP_temperature;BMP_pressure;BME280_temperature;BME280_humidity;BME280_pressure;Samples;Min_cycle;Max_cycle;Signal;HPM_P1;HPM_P2
2023/12/03 00:00:56;;;;;;;57.10;37.80;;;;;;;8.62;100.00;98652.06;5074707;28;20199;-70
2023/12/03 00:03:24;;;;;;;59.07;37.87;;;;;;;8.65;100.00;98664.84;5074229;28;20251;-71
2023/12/03 00:05:51;;;;;;;56.40;37.10;;;;;;;8.67;100.00;98670.78;5074360;28;20188;-70
2023/12/03 00:08:19;;;;;;;56.80;37.77;;;;;;;8.68;100.00;98672.41;5074669;28;20196;-71
2023/12/03 00:10:46;;;;;;;59.97;37.80;;;;;;;8.63;100.00;98685.44;5074351;28;20222;-71
2023/12/03 00:13:13;;;;;;;58.67;39.60;;;;;;;8.45;100.00;98678.09;5073981;28;20348;-72
2023/12/03 00:15:39;;;;;;;61.60;39.87;;;;;;;8.33;100.00;98678.91;5074344;28;20192;-71
2023/12/03 00:18:06;;;;;;;76.87;39.80;;;;;;;8.39;100.00;98678.09;5074330;28;20245;-71
2023/12/03 00:20:33;;;;;;;61.13;40.33;;;;;;;8.26;100.00;98672.78;5073687;28;20200;-71
2023/12/03 00:23:00;;;;;;;60.53;39.87;;;;;;;8.15;100.00;98674.16;5073822;28;20200;-72
2023/12/03 00:25:28;;;;;;;61.60;40.93;;;;;;;8.10;100.00;98683.69;5073663;28;20192;-71
2023/12/03 00:27:53;;;;;;;55.60;37.43;;;;;;;8.10;100.00;98699.56;5073688;28;20608;-71
2023/12/03 00:30:20;;;;;;;60.80;41.03;;;;;;;7.89;100.00;98710.28;5073774;28;20289;-71
2023/12/03 00:32:47;;;;;;;65.03;40.40;;;;;;;7.74;100.00;98699.03;5073666;28;20199;-71
2023/12/03 00:35:14;;;;;;;61.77;40.40;;;;;;;7.80;100.00;98704.34;5073587;28;20195;-70
2023/12/03 00:37:41;;;;;;;72.10;41.70;;;;;;;7.74;100.00;98705.16;5073845;28;20278;-70
2023/12/03 00:40:09;;;;;;;64.40;40.33;;;;;;;7.72;100.00;98711.66;5073099;28;20616;-71
2023/12/03 00:42:37;;;;;;;65.70;41.97;;;;;;;7.64;100.00;98688.81;5073835;28;20199;-70
2023/12/03 00:45:05;;;;;;;64.47;40.70;;;;;;;7.76;100.00;98718.97;5073653;28;20191;-70
2023/12/03 00:47:32;;;;;;;72.40;42.53;;;;;;;7.76;100.00;98728.75;5073495;28;20200;-70
2023/12/03 00:49:58;;;;;;;70.83;43.00;;;;;;;7.77;100.00;98731.19;5073441;28;20222;-70
2023/12/03 00:52:25;;;;;;;71.77;42.67;;;;;;;7.73;100.00;98737.06;5072106;28;20245;-70
2023/12/03 00:54:52;;;;;;;61.33;40.00;;;;;;;7.64;100.00;98735.59;5073773;28;20191;-69
2023/12/03 00:57:18;;;;;;;60.90;41.87;;;;;;;7.69;100.00;98744.56;5073496;28;20541;-69
2023/12/03 00:59:46;;;;;;;72.30;42.53;;;;;;;7.66;100.00;98752.06;5073459;28;20196;-70
2023/12/03 01:02:13;;;;;;;60.87;39.63;;;;;;;7.64;100.00;98751.44;5073186;28;20183;-71
2023/12/03 01:04:40;;;;;;;73.27;42.03;;;;;;;7.55;100.00;98747.34;5073470;28;20260;-70
2023/12/03 01:07:08;;;;;;;61.90;39.80;;;;;;;7.55;100.00;98742.84;5073241;28;20204;-72
2023/12/03 01:09:34;;;;;;;63.20;40.93;;;;;;;7.63;100.00;98729.47;5073855;28;20195;-71
2023/12/03 01:12:01;;;;;;;59.47;39.53;;;;;;;7.61;100.00;98730.69;5073394;28;20285;-70
2023/12/03 01:14:28;;;;;;;63.90;39.90;;;;;;;7.59;100.00;98733.53;5073522;28;20188;-71
2023/12/03 01:16:56;;;;;;;55.03;37.30;;;;;;;7.60;100.00;98739.63;5073366;28;20651;-70
2023/12/03 01:19:23;;;;;;;60.90;38.17;;;;;;;7.59;100.00;98749.38;5072824;28;20664;-71
2023/12/03 01:21:49;;;;;;;59.60;37.07;;;;;;;7.64;100.00;98751.44;5072968;28;20583;-70
2023/12/03 01:24:16;;;;;;;57.67;35.37;;;;;;;7.66;100.00;98747.59;5072622;28;20268;-73
2023/12/03 01:26:43;;;;;;;53.50;36.73;;;;;;;7.67;100.00;98735.22;5105268;28;20253;-72
2023/12/03 01:29:09;;;;;;;56.73;36.27;;;;;;;7.66;100.00;98729.09;5072353;28;20280;-72
2023/12/03 01:31:37;;;;;;;57.90;35.63;;;;;;;7.69;100.00;98727.88;5073028;28;20272;-72
2023/12/03 01:34:05;;;;;;;50.83;33.67;;;;;;;7.75;100.00;98732.38;5073185;28;20285;-72
2023/12/03 01:36:32;;;;;;;46.37;33.50;;;;;;;7.82;100.00;98727.94;5072973;28;20492;-72
2023/12/03 01:38:58;;;;;;;49.63;35.20;;;;;;;7.86;100.00;98729.19;5073150;28;20192;-72
2023/12/03 01:41:25;;;;;;;50.37;33.33;;;;;;;7.88;100.00;98727.16;5072794;28;20261;-71
2023/12/03 01:43:53;;;;;;;50.10;34.53;;;;;;;7.85;100.00;98731.03;5072783;28;20191;-72
2023/12/03 01:46:21;;;;;;;54.27;32.60;;;;;;;7.91;100.00;98726.75;5072746;28;20290;-71
2023/12/03 01:48:48;;;;;;;49.67;33.67;;;;;;;7.95;100.00;98735.91;5072814;28;20191;-72
2023/12/03 01:51:17;;;;;;;51.13;33.00;;;;;;;7.96;100.00;98732.28;5072801;28;20226;-72
2023/12/03 01:53:44;;;;;;;47.37;31.33;;;;;;;7.93;100.00;98736.09;5072426;28;20261;-72
2023/12/03 01:56:12;;;;;;;44.60;31.60;;;;;;;7.96;100.00;98741.00;5072630;28;20278;-73
2023/12/03 01:58:40;;;;;;;58.53;33.37;;;;;;;8.01;100.00;98732.50;5072565;28;20196;-71
2023/12/03 02:01:07;;;;;;;53.17;32.50;;;;;;;7.96;100.00;98756.09;5072159;28;20661;-71
2023/12/03 02:03:34;;;;;;;44.63;30.83;;;;;;;7.75;100.00;98732.38;5071939;28;20202;-71
2023/12/03 02:06:05;;;;;;;45.80;31.00;;;;;;;7.92;100.00;98747.72;5072555;28;20203;-72
2023/12/03 02:08:34;;;;;;;49.03;32.77;;;;;;;7.91;100.00;98737.31;5072411;28;20192;-72
2023/12/03 02:11:01;;;;;;;58.87;33.87;;;;;;;7.94;100.00;98729.84;5072026;28;20695;-72
2023/12/03 02:13:30;;;;;;;50.40;33.40;;;;;;;7.97;100.00;98731.25;5072373;28;20188;-73
2023/12/03 02:15:57;;;;;;;47.63;33.13;;;;;;;8.06;100.00;98751.22;5072533;28;20732;-72
2023/12/03 02:18:24;;;;;;;54.13;34.87;;;;;;;8.01;100.00;98743.06;5072052;28;20249;-71
2023/12/03 02:20:50;;;;;;;47.83;32.13;;;;;;;8.02;100.00;98750.00;5072180;28;20208;-71
2023/12/03 02:23:17;;;;;;;49.10;32.87;;;;;;;8.00;100.00;98746.75;5071741;28;20247;-71
2023/12/03 02:25:44;;;;;;;53.23;35.57;;;;;;;7.99;100.00;98734.50;5071931;28;20203;-71
2023/12/03 02:28:11;;;;;;;53.60;33.53;;;;;;;7.99;100.00;98731.88;5071824;28;20261;-71
2023/12/03 02:30:38;;;;;;;48.70;32.53;;;;;;;7.93;100.00;98746.69;5070145;28;20285;-71
2023/12/03 02:33:05;;;;;;;44.83;32.43;;;;;;;7.81;100.00;98756.22;5071828;28;20192;-71
2023/12/03 02:35:31;;;;;;;44.43;32.43;;;;;;;7.75;100.00;98753.53;5071708;28;20191;-71
2023/12/03 02:37:58;;;;;;;45.77;32.47;;;;;;;7.73;100.00;98750.28;5071929;28;20195;-71
2023/12/03 02:40:26;;;;;;;47.27;31.83;;;;;;;7.75;100.00;98750.88;5072074;28;20199;-72
2023/12/03 02:42:53;;;;;;;46.07;31.40;;;;;;;7.75;100.00;98759.63;5072176;28;20345;-72
2023/12/03 02:45:20;;;;;;;46.07;31.97;;;;;;;7.69;100.00;98754.31;5071477;28;20253;-72
2023/12/03 02:47:46;;;;;;;46.13;32.27;;;;;;;7.72;100.00;98764.50;5071404;28;20667;-72
2023/12/03 02:50:13;;;;;;;49.23;32.37;;;;;;;7.62;100.00;98764.03;5071683;28;20203;-72
2023/12/03 02:52:41;;;;;;;46.40;33.27;;;;;;;7.63;100.00;98768.31;5071751;28;20296;-72
2023/12/03 02:55:08;;;;;;;51.80;32.60;;;;;;;7.53;100.00;98760.75;5071629;28;20279;-71
2023/12/03 02:57:37;;;;;;;50.73;33.00;;;;;;;7.51;100.00;98762.75;5071197;28;20191;-71
2023/12/03 03:00:04;;;;;;;46.63;31.97;;;;;;;7.52;100.00;98777.59;5071514;28;20200;-71
2023/12/03 03:02:32;;;;;;;49.30;34.57;;;;;;;7.55;100.00;98779.06;5071160;28;20666;-71
2023/12/03 03:04:59;;;;;;;51.00;31.97;;;;;;;7.59;100.00;98765.22;5071772;28;20602;-70
2023/12/03 03:07:26;;;;;;;40.80;30.70;;;;;;;7.63;100.00;98782.34;5071394;28;20199;-71
2023/12/03 03:09:53;;;;;;;40.47;30.70;;;;;;;7.53;100.00;98775.78;5071792;28;20237;-70
2023/12/03 03:12:19;;;;;;;46.80;31.27;;;;;;;7.54;100.00;98790.59;5071457;28;20223;-71
2023/12/03 03:14:47;;;;;;;42.77;30.53;;;;;;;7.56;100.00;98778.03;5072482;28;20712;-72
2023/12/03 03:17:14;;;;;;;43.47;30.43;;;;;;;7.52;100.00;98782.88;5075643;28;20487;-72
2023/12/03 03:19:43;;;;;;;36.00;28.53;;;;;;;7.45;100.00;98794.41;5075690;28;20199;-72
2023/12/03 03:22:11;;;;;;;45.47;32.33;;;;;;;7.50;100.00;98786.72;5075467;28;20196;-72
2023/12/03 03:24:38;;;;;;;45.83;30.67;;;;;;;7.53;100.00;98784.53;5075262;28;20610;-72
2023/12/03 03:27:05;;;;;;;40.33;29.33;;;;;;;7.53;100.00;98786.34;5074866;28;20195;-72
2023/12/03 03:29:32;;;;;;;38.77;29.43;;;;;;;7.46;100.00;98781.00;5075124;28;20238;-72
2023/12/03 03:32:00;;;;;;;40.87;28.17;;;;;;;7.46;100.00;98796.88;5075264;28;20604;-72
2023/12/03 03:34:27;;;;;;;41.10;28.50;;;;;;;7.49;100.00;98800.94;5075437;28;20635;-71
2023/12/03 03:36:54;;;;;;;39.97;29.47;;;;;;;7.45;100.00;98804.97;5075034;28;20201;-71
2023/12/03 03:39:20;;;;;;;40.13;27.97;;;;;;;7.43;100.00;98804.38;5075202;28;20194;-71
2023/12/03 03:41:47;;;;;;;41.07;28.27;;;;;;;7.47;100.00;98802.97;5074939;28;20202;-70
2023/12/03 03:44:14;;;;;;;41.43;28.17;;;;;;;7.55;100.00;98794.91;5075364;28;20191;-71
2023/12/03 03:46:41;;;;;;;42.97;28.50;;;;;;;7.58;100.00;98799.78;5074673;28;20733;-71
2023/12/03 03:49:09;;;;;;;38.83;27.67;;;;;;;7.48;100.00;98804.59;5074825;28;20196;-72
2023/12/03 03:51:36;;;;;;;38.27;26.90;;;;;;;7.41;100.00;98803.72;5074727;28;20257;-73
2023/12/03 03:54:02;;;;;;;40.33;26.77;;;;;;;7.38;100.00;98804.09;5074588;28;20195;-73
2023/12/03 03:56:29;;;;;;;36.10;26.43;;;;;;;7.30;100.00;98796.31;5074663;28;20250;-72
2023/12/03 03:58:56;;;;;;;40.80;26.57;;;;;;;7.35;100.00;98799.22;5074901;28;20192;-72
2023/12/03 04:01:23;;;;;;;44.10;28.47;;;;;;;7.41;100.00;98798.44;5074819;28;20195;-74
2023/12/03 04:03:50;;;;;;;39.70;28.57;;;;;;;7.41;100.00;98804.56;5074676;28;20584;-73
2023/12/03 04:06:18;;;;;;;38.20;28.10;;;;;;;7.49;100.00;98811.50;5074768;28;20203;-73
2023/12/03 04:08:45;;;;;;;39.00;28.40;;;;;;;7.51;100.00;98793.66;5074541;28;20200;-73
2023/12/03 04:11:12;;;;;;;41.70;28.80;;;;;;;7.63;100.00;98792.09;5074733;28;20219;-73
2023/12/03 04:13:39;;;;;;;49.57;30.33;;;;;;;7.70;100.00;98799.06;5074560;28;20625;-73
2023/12/03 04:16:07;;;;;;;43.77;29.33;;;;;;;7.75;100.00;98801.94;5074933;28;20257;-73
2023/12/03 04:18:34;;;;;;;45.47;27.60;;;;;;;7.79;100.00;98797.06;5074447;28;20188;-73
2023/12/03 04:21:00;;;;;;;43.10;29.77;;;;;;;7.86;100.00;98804.03;5074679;28;20261;-72
2023/12/03 04:23:28;;;;;;;36.33;26.10;;;;;;;7.90;100.00;98807.09;5073935;28;20681;-73
2023/12/03 04:25:55;;;;;;;39.97;27.43;;;;;;;7.70;100.00;98799.06;5074353;28;20195;-73
2023/12/03 04:28:22;;;;;;;38.77;27.70;;;;;;;7.74;100.00;98817.97;5074005;28;20551;-71
2023/12/03 04:30:48;;;;;;;49.87;35.70;;;;;;;7.62;100.00;98823.00;5074361;28;20691;-71
2023/12/03 04:33:15;;;;;;;42.47;28.27;;;;;;;7.61;100.00;98836.41;5074418;28;20261;-69
2023/12/03 04:35:43;;;;;;;39.10;26.10;;;;;;;7.63;100.00;98826.47;5074049;28;20219;-69
2023/12/03 04:38:10;;;;;;;37.63;25.20;;;;;;;7.72;100.00;98828.75;5073616;28;20239;-70
2023/12/03 04:40:38;;;;;;;35.37;25.87;;;;;;;7.66;100.00;98831.34;5073979;28;20196;-72
2023/12/03 04:43:05;;;;;;;29.50;22.17;;;;;;;7.69;100.00;98837.06;5074004;28;20206;-72
2023/12/03 04:45:32;;;;;;;26.93;21.33;;;;;;;7.72;100.00;98838.50;5073584;28;20643;-73
2023/12/03 04:47:58;;;;;;;33.50;22.97;;;;;;;7.71;100.00;98837.69;5073717;28;20242;-73
2023/12/03 04:50:25;;;;;;;33.10;23.97;;;;;;;7.80;100.00;98851.56;5074033;28;20232;-73
2023/12/03 04:52:52;;;;;;;30.27;23.50;;;;;;;7.76;100.00;98845.84;5074162;28;20250;-74
2023/12/03 04:55:19;;;;;;;31.63;20.43;;;;;;;7.89;100.00;98845.13;5073655;28;20261;-73
2023/12/03 04:57:47;;;;;;;29.40;19.67;;;;;;;7.96;100.00;98856.56;5073668;28;20214;-74
2023/12/03 05:00:14;;;;;;;31.60;22.47;;;;;;;8.02;100.00;98853.94;5073759;28;20265;-72
2023/12/03 05:02:41;;;;;;;28.33;19.83;;;;;;;8.13;100.00;98863.16;5073429;28;20199;-73
2023/12/03 05:05:08;;;;;;;26.17;19.20;;;;;;;8.05;100.00;98847.44;5073495;28;20196;-72
2023/12/03 05:07:35;;;;;;;27.17;20.10;;;;;;;8.17;100.00;98869.69;5073552;28;20200;-72
2023/12/03 05:10:02;;;;;;;26.77;19.73;;;;;;;8.17;100.00;98869.69;5073435;28;20196;-72
2023/12/03 05:12:28;;;;;;;22.50;18.00;;;;;;;8.09;100.00;98873.28;5073581;28;20223;-72
2023/12/03 05:14:56;;;;;;;26.23;17.50;;;;;;;8.07;100.00;98867.41;5072869;28;20196;-71
2023/12/03 05:17:23;;;;;;;24.67;17.83;;;;;;;8.06;100.00;98862.28;5073549;28;20199;-72
2023/12/03 05:19:50;;;;;;;26.47;17.87;;;;;;;8.12;100.00;98872.09;5073023;28;20191;-73
2023/12/03 05:22:17;;;;;;;25.30;17.30;;;;;;;8.19;100.00;98862.34;5072958;28;20249;-73
2023/12/03 05:24:43;;;;;;;22.27;17.37;;;;;;;8.25;100.00;98866.91;5073320;28;20304;-72
2023/12/03 05:27:10;;;;;;;19.20;16.00;;;;;;;8.31;100.00;98879.34;5072789;28;20195;-71
2023/12/03 05:29:42;;;;;;;20.20;16.63;;;;;;;8.35;100.00;98883.22;5073110;28;20228;-72
2023/12/03 05:32:10;;;;;;;21.40;15.93;;;;;;;8.37;100.00;98875.94;5071400;28;20208;-72
2023/12/03 05:34:37;;;;;;;23.30;16.87;;;;;;;8.42;100.00;98879.59;5073239;28;20489;-72
2023/12/03 05:37:04;;;;;;;18.40;16.27;;;;;;;8.33;100.00;98870.19;5071628;28;20254;-71
2023/12/03 05:39:31;;;;;;;19.57;15.53;;;;;;;8.32;100.00;98867.75;5071728;28;20188;-72
2023/12/03 05:41:57;;;;;;;20.90;16.80;;;;;;;8.35;100.00;98856.78;5072271;28;20195;-72
2023/12/03 05:44:24;;;;;;;23.87;17.60;;;;;;;8.30;100.00;98859.19;5071819;28;20710;-73
2023/12/03 05:46:51;;;;;;;21.37;18.37;;;;;;;8.08;100.00;98850.50;5071603;28;20196;-73
2023/12/03 05:49:19;;;;;;;22.63;18.87;;;;;;;8.05;100.00;98852.75;5071487;28;20253;-73
2023/12/03 05:51:46;;;;;;;26.87;19.33;;;;;;;8.06;100.00;98851.72;5073115;28;20223;-73
2023/12/03 05:54:13;;;;;;;27.67;20.63;;;;;;;8.04;100.00;98853.75;5071952;28;20188;-74
2023/12/03 05:56:39;;;;;;;26.40;20.97;;;;;;;7.83;100.00;98835.31;5071422;28;20676;-72
2023/12/03 05:59:06;;;;;;;27.30;21.37;;;;;;;7.74;100.00;98841.75;5071030;28;20196;-73
2023/12/03 06:01:33;;;;;;;25.13;19.73;;;;;;;7.83;100.00;98861.75;5071593;28;20681;-74
2023/12/03 06:04:00;;;;;;;27.50;20.57;;;;;;;7.83;100.00;98867.03;5071106;28;20199;-73
2023/12/03 06:06:28;;;;;;;32.43;21.87;;;;;;;7.90;100.00;98878.47;5060157;28;20195;-74
2023/12/03 06:08:55;;;;;;;27.97;20.47;;;;;;;7.92;100.00;98893.13;5067923;28;20195;-73
2023/12/03 06:11:21;;;;;;;33.67;23.03;;;;;;;7.96;100.00;98889.09;5069735;28;20260;-74
2023/12/03 06:13:48;;;;;;;30.17;22.37;;;;;;;7.80;100.00;98878.81;5060295;28;20623;-74
2023/12/03 06:16:15;;;;;;;32.00;21.77;;;;;;;7.98;100.00;98875.69;5092620;28;20249;-74
2023/12/03 06:18:43;;;;;;;37.83;23.37;;;;;;;8.04;100.00;98874.91;5070721;28;20278;-73
2023/12/03 06:21:10;;;;;;;34.73;22.77;;;;;;;8.06;100.00;98891.38;5070974;28;20196;-73
2023/12/03 06:23:38;;;;;;;34.83;24.57;;;;;;;8.11;100.00;98896.91;5071041;28;20195;-72
2023/12/03 06:26:05;;;;;;;31.43;22.43;;;;;;;8.12;100.00;98887.94;5061176;28;20207;-73
2023/12/03 06:28:32;;;;;;;29.97;22.43;;;;;;;8.17;100.00;98896.13;5067338;28;20191;-73
2023/12/03 06:30:59;;;;;;;34.20;23.37;;;;;;;8.28;100.00;98903.53;5061355;28;20637;-73
2023/12/03 06:33:25;;;;;;;32.10;22.87;;;;;;;8.16;100.00;98905.06;5061265;28;20217;-71
2023/12/03 06:35:52;;;;;;;31.50;22.40;;;;;;;8.08;100.00;98910.53;5070551;28;20609;-71
2023/12/03 06:38:19;;;;;;;42.57;29.07;;;;;;;8.02;100.00;98908.66;5070906;28;20238;-72
2023/12/03 06:40:47;;;;;;;42.57;28.77;;;;;;;8.09;100.00;98909.53;5070583;28;20199;-72
2023/12/03 06:43:14;;;;;;;46.83;29.93;;;;;;;8.20;100.00;98904.50;5070485;28;20198;-72
2023/12/03 06:45:41;;;;;;;52.40;34.20;;;;;;;8.27;100.00;98915.13;5070224;28;20191;-72
2023/12/03 06:48:07;;;;;;;51.23;32.40;;;;;;;8.10;100.00;98911.97;5070267;28;20544;-73
2023/12/03 06:50:34;;;;;;;49.30;31.40;;;;;;;8.13;100.00;98929.28;5068798;28;20183;-73
2023/12/03 06:53:01;;;;;;;45.70;31.93;;;;;;;8.27;100.00;98931.00;5070514;28;20215;-72
2023/12/03 06:55:28;;;;;;;43.07;30.83;;;;;;;8.37;100.00;98932.28;5059310;28;20223;-72
2023/12/03 06:57:56;;;;;;;43.23;30.27;;;;;;;8.40;100.00;98923.13;5067157;28;20257;-73
2023/12/03 07:00:24;;;;;;;42.60;29.00;;;;;;;8.51;100.00;98935.81;5069705;28;20192;-72
2023/12/03 07:02:51;;;;;;;42.10;27.73;;;;;;;8.51;100.00;98930.53;5070369;28;20567;-72
2023/12/03 07:05:18;;;;;;;34.17;26.40;;;;;;;8.60;100.00;98934.63;5060528;28;20317;-72
2023/12/03 07:07:48;;;;;;;37.50;25.03;;;;;;;8.68;100.00;98932.66;5059920;28;20200;-71
2023/12/03 07:10:15;;;;;;;32.20;24.60;;;;;;;8.67;100.00;98930.19;5067883;28;20271;-73
2023/12/03 07:12:41;;;;;;;34.17;22.23;;;;;;;8.60;100.00;98918.75;5073911;28;20340;-71
2023/12/03 07:15:10;;;;;;;29.67;19.23;;;;;;;8.60;100.00;98934.63;5069052;28;20184;-70
2023/12/03 07:17:37;;;;;;;27.37;17.87;;;;;;;8.54;100.00;98932.78;5069289;28;20203;-71
2023/12/03 07:20:05;;;;;;;25.10;18.60;;;;;;;8.60;100.00;98939.94;5064378;28;20192;-71
2023/12/03 07:22:32;;;;;;;28.53;18.53;;;;;;;8.73;100.00;98938.16;5060159;28;20279;-72
2023/12/03 07:24:59;;;;;;;23.13;17.43;;;;;;;8.83;100.00;98956.34;5058902;28;20200;-70
2023/12/03 07:27:25;;;;;;;27.00;17.77;;;;;;;8.89;100.00;98947.59;5054398;28;20200;-70
2023/12/03 07:29:55;;;;;;;25.23;17.23;;;;;;;9.00;100.00;98947.03;5048726;28;20228;-71
2023/12/03 07:32:24;;;;;;;28.70;16.30;;;;;;;9.02;100.00;98947.63;5053024;28;20572;-71
2023/12/03 07:34:51;;;;;;;20.50;15.60;;;;;;;9.09;100.00;98957.25;5049849;28;20564;-70
2023/12/03 07:37:18;;;;;;;22.20;15.77;;;;;;;9.14;100.00;98961.94;5064870;28;20195;-70
2023/12/03 07:39:45;;;;;;;19.93;15.90;;;;;;;9.14;100.00;98965.41;5068971;28;20612;-71
2023/12/03 07:42:12;;;;;;;24.10;14.73;;;;;;;9.25;100.00;98979.91;5069072;28;20203;-72
2023/12/03 07:44:38;;;;;;;20.20;14.53;;;;;;;9.24;100.00;98972.97;5069746;28;20688;-70
2023/12/03 07:47:05;;;;;;;19.83;13.60;;;;;;;9.20;100.00;98947.91;5069660;28;20257;-70
2023/12/03 07:49:33;;;;;;;16.73;13.47;;;;;;;9.38;100.00;98966.69;5069246;28;20249;-70
2023/12/03 07:52:00;;;;;;;21.80;14.00;;;;;;;9.55;100.00;98978.53;5069459;28;20189;-70
2023/12/03 07:54:27;;;;;;;18.33;13.87;;;;;;;9.69;100.00;98982.84;5069764;28;20253;-70
2023/12/03 07:56:53;;;;;;;18.70;14.47;;;;;;;9.80;100.00;98985.69;5069742;28;20196;-70
2023/12/03 07:59:20;;;;;;;26.33;14.37;;;;;;;9.77;100.00;98987.94;5070077;28;20203;-72
2023/12/03 08:01:47;;;;;;;21.53;13.97;;;;;;;9.83;100.00;98993.25;5071389;28;20200;-67
2023/12/03 08:04:14;;;;;;;21.80;15.03;;;;;;;10.52;100.00;98994.47;5073494;28;20200;-72
2023/12/03 08:06:42;;;;;;;15.57;12.53;;;;;;;10.19;100.00;98991.03;5073125;28;20208;-70
2023/12/03 08:09:09;;;;;;;20.37;13.60;;;;;;;10.18;98.88;99000.00;5072281;28;20196;-69
2023/12/03 08:11:37;;;;;;;19.67;14.80;;;;;;;10.04;98.38;99000.19;5073469;28;20208;-71
2023/12/03 08:14:04;;;;;;;21.43;16.63;;;;;;;10.12;98.40;99007.97;5073445;28;20218;-73
2023/12/03 08:16:31;;;;;;;18.60;14.13;;;;;;;10.06;99.06;99008.81;5072405;28;20249;-72
2023/12/03 08:18:58;;;;;;;18.30;13.77;;;;;;;10.02;99.36;99002.25;5073166;28;20265;-71
2023/12/03 08:21:25;;;;;;;21.13;15.37;;;;;;;10.06;99.72;99006.16;5076502;28;20223;-70
2023/12/03 08:23:55;;;;;;;28.97;15.27;;;;;;;10.10;99.64;99004.72;5082489;28;20765;-72
2023/12/03 08:26:24;;;;;;;27.40;16.00;;;;;;;10.12;99.50;98992.06;5073886;28;20593;-72
2023/12/03 08:28:51;;;;;;;29.97;17.80;;;;;;;10.23;99.86;98986.13;5071242;28;20195;-72
2023/12/03 08:31:23;;;;;;;23.17;13.53;;;;;;;10.17;99.61;98986.97;5070353;28;20227;-72
2023/12/03 08:33:53;;;;;;;18.80;13.53;;;;;;;10.26;99.81;98991.03;5066462;28;20326;-72
2023/12/03 08:36:21;;;;;;;22.27;14.13;;;;;;;10.28;99.70;98992.47;5072499;28;20180;-73
2023/12/03 08:38:49;;;;;;;27.57;15.57;;;;;;;10.22;99.64;98990.63;5070365;28;20204;-71
2023/12/03 08:41:20;;;;;;;23.77;15.10;;;;;;;10.28;99.86;98988.97;5071808;28;20222;-72
2023/12/03 08:43:49;;;;;;;19.00;14.67;;;;;;;10.25;100.00;99005.34;5061948;28;20191;-72
2023/12/03 08:46:17;;;;;;;20.63;15.40;;;;;;;10.38;100.00;98994.69;5070943;28;20192;-72
2023/12/03 08:48:45;;;;;;;23.17;16.03;;;;;;;10.56;100.00;98994.84;5061259;28;20210;-73
2023/12/03 08:51:13;;;;;;;29.30;16.87;;;;;;;10.76;99.64;98999.09;5062117;28;20195;-70
2023/12/03 08:53:41;;;;;;;39.77;21.47;;;;;;;10.92;98.75;98995.97;5062690;28;20217;-71
2023/12/03 08:56:11;;;;;;;25.63;17.97;;;;;;;11.05;97.68;99000.41;5069824;28;20251;-70
2023/12/03 08:58:40;;;;;;;20.97;16.13;;;;;;;11.10;97.07;98991.81;5071932;28;20194;-71
2023/12/03 09:01:07;;;;;;;26.77;15.70;;;;;;;11.18;96.83;99000.34;5071516;28;20229;-71
2023/12/03 09:03:34;;;;;;;22.47;16.07;;;;;;;11.33;96.35;98994.75;5072882;28;20206;-71
2023/12/03 09:06:01;;;;;;;25.80;17.07;;;;;;;11.45;96.02;98993.88;5072710;28;20270;-71
2023/12/03 09:08:28;;;;;;;27.27;15.50;;;;;;;11.57;95.69;99005.47;5072924;28;20730;-71
2023/12/03 09:10:55;;;;;;;21.20;14.63;;;;;;;11.62;95.12;99003.00;5072940;28;20684;-71
2023/12/03 09:13:22;;;;;;;20.93;14.27;;;;;;;11.70;93.91;98994.78;5071563;28;20645;-71
2023/12/03 09:15:52;;;;;;;21.03;14.23;;;;;;;11.78;93.86;99005.16;5077936;28;20197;-70
2023/12/03 09:18:19;;;;;;;20.37;14.77;;;;;;;11.82;93.64;98994.88;5076042;28;20220;-69
2023/12/03 09:20:46;;;;;;;22.43;14.50;;;;;;;11.70;93.64;98985.97;5072191;28;20198;-68
2023/12/03 09:23:13;;;;;;;25.23;15.20;;;;;;;11.81;94.01;98993.25;5072350;28;20270;-68
2023/12/03 09:25:40;;;;;;;23.87;14.20;;;;;;;11.89;93.52;98987.69;5072213;28;20193;-69
2023/12/03 09:28:06;;;;;;;31.33;15.57;;;;;;;12.05;93.75;99001.25;5071929;28;20243;-69
2023/12/03 09:30:33;;;;;;;18.83;15.47;;;;;;;12.09;93.66;98999.00;5073348;28;20719;-68
2023/12/03 09:33:01;;;;;;;23.93;15.60;;;;;;;12.21;93.18;99007.91;5059628;28;20218;-65
2023/12/03 09:35:29;;;;;;;31.47;17.90;;;;;;;12.27;92.97;99013.16;5061014;28;20202;-65
2023/12/03 09:37:56;;;;;;;27.03;18.03;;;;;;;12.33;93.14;99006.16;5075119;28;20468;-72
2023/12/03 09:40:23;;;;;;;25.93;17.13;;;;;;;12.37;93.32;99013.47;5071814;28;20663;-75
2023/12/03 09:42:51;;;;;;;39.23;16.70;;;;;;;12.59;93.28;99021.88;5072188;28;20205;-75
2023/12/03 09:45:19;;;;;;;26.97;15.03;;;;;;;12.73;92.31;99018.84;5071195;28;20203;-75
2023/12/03 09:47:49;;;;;;;24.57;15.23;;;;;;;12.88;91.92;99021.16;5071165;28;20215;-76
2023/12/03 09:50:18;;;;;;;26.50;14.67;;;;;;;13.00;92.02;99025.56;5072715;28;20242;-75
2023/12/03 09:52:51;;;;;;;23.80;13.23;;;;;;;13.11;91.08;99011.47;5066678;28;20195;-78
2023/12/03 09:55:19;;;;;;;24.93;14.37;;;;;;;13.28;91.41;99017.81;5072441;28;20291;-75
2023/12/03 09:57:48;;;;;;;26.70;14.00;;;;;;;13.39;90.17;99017.06;5080767;28;20264;-74
2023/12/03 10:00:16;;;;;;;21.80;14.43;;;;;;;13.52;90.34;99018.75;5071052;28;20196;-74
2023/12/03 10:02:44;;;;;;;26.70;15.60;;;;;;;13.62;89.28;99024.34;5067986;28;20574;-74
2023/12/03 10:05:11;;;;;;;32.90;16.13;;;;;;;13.70;88.81;99021.34;5072860;28;20191;-75
2023/12/03 10:07:39;;;;;;;41.47;19.37;;;;;;;13.76;88.77;99015.91;5080924;28;20757;-75
2023/12/03 10:10:10;;;;;;;43.63;21.67;;;;;;;13.86;88.54;99026.88;5070711;28;20250;-74
2023/12/03 10:12:42;;;;;;;27.20;17.97;;;;;;;13.89;88.10;99037.06;5069272;28;20207;-75
2023/12/03 10:15:10;;;;;;;26.60;15.90;;;;;;;13.88;88.22;99040.78;5070188;28;20713;-74
2023/12/03 10:17:38;;;;;;;25.70;16.77;;;;;;;13.96;88.44;99024.44;5070875;28;20192;-75
2023/12/03 10:20:27;;;;;;;22.83;14.70;;;;;;;14.08;87.75;99022.63;5081182;28;20268;-75
2023/12/03 10:22:57;;;;;;;26.40;15.63;;;;;;;14.20;87.29;99020.78;5050111;28;20699;-76
2023/12/03 10:25:31;;;;;;;26.73;15.63;;;;;;;14.31;86.48;99024.53;5050975;28;20220;-76
2023/12/03 10:28:00;;;;;;;30.87;15.87;;;;;;;14.36;84.97;99033.50;5050967;28;20192;-75
2023/12/03 10:30:28;;;;;;;18.03;13.83;;;;;;;14.41;85.36;99025.59;5058546;28;20231;-75
2023/12/03 10:32:55;;;;;;;20.13;15.10;;;;;;;14.51;85.29;99020.50;5070493;28;20670;-75
2023/12/03 10:35:23;;;;;;;26.67;15.47;;;;;;;14.59;84.91;99017.44;5070112;28;20654;-75
2023/12/03 10:37:50;;;;;;;26.57;15.60;;;;;;;14.66;84.05;99010.13;5071002;28;20204;-75
2023/12/03 10:40:20;;;;;;;28.50;16.93;;;;;;;14.73;84.34;99013.50;5069860;28;20188;-75
2023/12/03 10:42:47;;;;;;;25.87;16.37;;;;;;;14.79;84.33;99011.75;5070069;28;20191;-74
2023/12/03 10:45:15;;;;;;;21.33;14.80;;;;;;;14.81;84.74;99023.03;5069555;28;20729;-72
2023/12/03 10:47:43;;;;;;;24.30;14.50;;;;;;;14.79;83.94;99025.13;5070935;28;20203;-73
2023/12/03 10:50:11;;;;;;;20.27;14.37;;;;;;;14.65;83.63;99027.22;5070956;28;20208;-73
2023/12/03 10:52:39;;;;;;;20.30;13.53;;;;;;;14.70;83.83;99024.66;5071375;28;20628;-72
2023/12/03 10:55:07;;;;;;;16.60;12.97;;;;;;;14.65;83.36;99023.72;5070423;28;20231;-73
2023/12/03 10:57:44;;;;;;;24.63;13.37;;;;;;;14.68;83.86;99020.59;5070918;28;20246;-74
2023/12/03 11:00:17;;;;;;;22.93;12.87;;;;;;;14.60;83.13;99027.13;5070002;28;20663;-75
2023/12/03 11:02:46;;;;;;;18.53;13.17;;;;;;;14.52;83.65;99008.75;5070128;28;20187;-73
2023/12/03 11:05:20;;;;;;;19.60;13.20;;;;;;;14.56;84.35;99007.25;5070097;28;20638;-74
2023/12/03 11:07:46;;;;;;;22.70;14.10;;;;;;;14.60;84.06;99013.75;5075566;28;20184;-75
2023/12/03 11:10:13;;;;;;;23.43;14.27;;;;;;;14.56;84.17;99007.25;5072330;28;20257;-74
2023/12/03 11:12:41;;;;;;;18.43;13.37;;;;;;;14.59;84.31;99006.75;5069746;28;20663;-75
2023/12/03 11:15:09;;;;;;;24.23;13.50;;;;;;;14.55;83.46;99000.25;5071833;28;20272;-74
2023/12/03 11:17:40;;;;;;;22.00;13.60;;;;;;;14.56;83.97;98995.72;5070617;28;20253;-72